sensor_id;sensor_type;location;lat;lon;timestamp;P1;durP1;ratioP1;P2;durP2;ratioP2
58972;SDS011;44750;52.040;7.472;2024-03-08T05:01:05;22.65;;;16.30;;
58972;SDS011;44750;52.040;7.472;2024-03-08T05:06:06;23.02;;;17.55;;
58972;SDS011;44750;52.040;7.472;2024-03-08T05:11:06;22.92;;;17.40;;
58972;SDS011;44750;52.040;7.472;2024-03-08T05:16:07;27.08;;;19.27;;
58972;SDS011;44750;52.040;7.472;2024-03-08T05:21:07;23.88;;;17.98;;
58972;SDS011;44750;52.040;7.472;2024-03-08T05:26:07;22.50;;;16.70;;
58972;SDS011;44750;52.040;7.472;2024-03-08T05:31:07;28.83;;;18.85;;
58972;SDS011;44750;52.040;7.472;2024-03-08T05:36:07;27.77;;;18.02;;
58972;SDS011;44750;52.040;7.472;2024-03-08T05:41:08;23.30;;;18.35;;
58972;SDS011;44750;52.040;7.472;2024-03-08T05:46:08;23.20;;;16.83;;
58972;SDS011;44750;52.040;7.472;2024-03-08T05:51:08;28.08;;;18.75;;
58972;SDS011;44750;52.040;7.472;2024-03-08T05:56:08;33.70;;;20.23;;
58972;SDS011;44750;52.040;7.472;2024-03-08T06:01:08;24.45;;;16.70;;
58972;SDS011;44750;52.040;7.472;2024-03-08T06:06:08;26.38;;;19.58;;
58972;SDS011;44750;52.040;7.472;2024-03-08T06:11:09;28.58;;;18.52;;
58972;SDS011;44750;52.040;7.472;2024-03-08T06:16:09;26.30;;;19.40;;
58972;SDS011;44750;52.040;7.472;2024-03-08T06:21:09;29.20;;;18.73;;
58972;SDS011;44750;52.040;7.472;2024-03-08T06:26:09;22.00;;;16.35;;
58972;SDS011;44750;52.040;7.472;2024-03-08T06:31:09;21.85;;;16.55;;
58972;SDS011;44750;52.040;7.472;2024-03-08T06:36:09;28.00;;;18.67;;
58972;SDS011;44750;52.040;7.472;2024-03-08T06:41:10;23.25;;;16.90;;
58972;SDS011;44750;52.040;7.472;2024-03-08T06:46:10;18.98;;;14.98;;
58972;SDS011;44750;52.040;7.472;2024-03-08T06:51:10;30.10;;;16.67;;
58972;SDS011;44750;52.040;7.472;2024-03-08T06:56:10;30.40;;;16.83;;
58972;SDS011;44750;52.040;7.472;2024-03-08T07:01:10;24.52;;;17.98;;
58972;SDS011;44750;52.040;7.472;2024-03-08T07:06:11;24.60;;;17.13;;
58972;SDS011;44750;52.040;7.472;2024-03-08T07:11:11;23.30;;;17.63;;
58972;SDS011;44750;52.040;7.472;2024-03-08T07:16:11;21.87;;;16.10;;
58972;SDS011;44750;52.040;7.472;2024-03-08T07:21:11;23.08;;;17.27;;
58972;SDS011;44750;52.040;7.472;2024-03-08T15:17:35;14.10;;;10.85;;
58972;SDS011;44750;52.040;7.472;2024-03-08T15:22:36;11.25;;;9.45;;
58972;SDS011;44750;52.040;7.472;2024-03-08T15:27:36;15.55;;;11.27;;
58972;SDS011;44750;52.040;7.472;2024-03-08T15:32:36;13.93;;;10.55;;
58972;SDS011;44750;52.040;7.472;2024-03-08T15:37:36;13.00;;;10.23;;
58972;SDS011;44750;52.040;7.472;2024-03-08T15:42:37;13.05;;;9.88;;
58972;SDS011;44750;52.040;7.472;2024-03-08T15:47:37;15.68;;;12.32;;
58972;SDS011;44750;52.040;7.472;2024-03-08T15:52:38;15.13;;;11.98;;
58972;SDS011;44750;52.040;7.472;2024-03-08T15:57:38;16.02;;;11.93;;
58972;SDS011;44750;52.040;7.472;2024-03-08T16:02:39;13.00;;;11.23;;
58972;SDS011;44750;52.040;7.472;2024-03-08T16:07:40;16.25;;;12.68;;
58972;SDS011;44750;52.040;7.472;2024-03-08T16:12:40;15.30;;;12.02;;
58972;SDS011;44750;52.040;7.472;2024-03-08T16:17:40;17.10;;;13.10;;
58972;SDS011;44750;52.040;7.472;2024-03-08T16:22:43;14.73;;;12.10;;
58972;SDS011;44750;52.040;7.472;2024-03-08T16:27:44;14.82;;;11.90;;
58972;SDS011;44750;52.040;7.472;2024-03-08T16:32:45;15.95;;;12.13;;
58972;SDS011;44750;52.040;7.472;2024-03-08T16:37:45;18.23;;;12.68;;
58972;SDS011;44750;52.040;7.472;2024-03-08T16:42:46;16.67;;;12.63;;
58972;SDS011;44750;52.040;7.472;2024-03-08T16:47:47;17.23;;;13.02;;
58972;SDS011;44750;52.040;7.472;2024-03-08T16:52:48;15.40;;;12.18;;
58972;SDS011;44750;52.040;7.472;2024-03-08T16:57:49;15.23;;;12.35;;
58972;SDS011;44750;52.040;7.472;2024-03-08T17:02:49;15.67;;;12.60;;
58972;SDS011;44750;52.040;7.472;2024-03-08T17:07:49;14.30;;;11.93;;
58972;SDS011;44750;52.040;7.472;2024-03-08T17:12:50;12.67;;;9.70;;
58972;SDS011;44750;52.040;7.472;2024-03-08T17:17:52;17.15;;;12.85;;
58972;SDS011;44750;52.040;7.472;2024-03-08T17:22:54;15.73;;;13.15;;
58972;SDS011;44750;52.040;7.472;2024-03-08T17:27:56;16.75;;;12.75;;
58972;SDS011;44750;52.040;7.472;2024-03-08T17:32:58;17.52;;;12.75;;
58972;SDS011;44750;52.040;7.472;2024-03-08T17:37:59;24.77;;;14.25;;
58972;SDS011;44750;52.040;7.472;2024-03-08T17:43:00;18.40;;;13.45;;
58972;SDS011;44750;52.040;7.472;2024-03-08T17:48:00;19.15;;;14.00;;
58972;SDS011;44750;52.040;7.472;2024-03-08T17:53:01;17.48;;;12.77;;
58972;SDS011;44750;52.040;7.472;2024-03-08T17:58:01;22.20;;;15.20;;
58972;SDS011;44750;52.040;7.472;2024-03-08T18:03:02;15.27;;;12.73;;
58972;SDS011;44750;52.040;7.472;2024-03-08T18:08:03;17.55;;;13.57;;
58972;SDS011;44750;52.040;7.472;2024-03-08T18:13:04;21.80;;;13.85;;
58972;SDS011;44750;52.040;7.472;2024-03-08T18:18:05;16.80;;;12.68;;
58972;SDS011;44750;52.040;7.472;2024-03-08T18:23:05;17.63;;;14.30;;
58972;SDS011;44750;52.040;7.472;2024-03-08T18:28:05;20.27;;;14.88;;
58972;SDS011;44750;52.040;7.472;2024-03-08T18:33:06;21.55;;;14.95;;
58972;SDS011;44750;52.040;7.472;2024-03-08T18:38:07;21.00;;;15.32;;
58972;SDS011;44750;52.040;7.472;2024-03-08T18:43:08;20.30;;;14.15;;
58972;SDS011;44750;52.040;7.472;2024-03-08T18:48:09;21.30;;;15.90;;
58972;SDS011;44750;52.040;7.472;2024-03-08T18:53:09;19.83;;;15.30;;
58972;SDS011;44750;52.040;7.472;2024-03-08T18:58:09;21.05;;;15.30;;
58972;SDS011;44750;52.040;7.472;2024-03-08T19:03:10;23.90;;;15.88;;
58972;SDS011;44750;52.040;7.472;2024-03-08T19:08:10;26.50;;;17.63;;
58972;SDS011;44750;52.040;7.472;2024-03-08T19:13:11;23.15;;;16.48;;
58972;SDS011;44750;52.040;7.472;2024-03-08T19:18:11;23.48;;;17.38;;
58972;SDS011;44750;52.040;7.472;2024-03-08T19:23:11;23.48;;;17.92;;
58972;SDS011;44750;52.040;7.472;2024-03-08T19:28:12;25.63;;;18.23;;
58972;SDS011;44750;52.040;7.472;2024-03-08T19:33:12;23.38;;;17.02;;
58972;SDS011;44750;52.040;7.472;2024-03-08T19:38:13;21.25;;;17.25;;
58972;SDS011;44750;52.040;7.472;2024-03-08T19:43:13;26.40;;;18.77;;
58972;SDS011;44750;52.040;7.472;2024-03-08T19:48:13;26.08;;;17.40;;
58972;SDS011;44750;52.040;7.472;2024-03-08T19:53:13;24.60;;;18.25;;
58972;SDS011;44750;52.040;7.472;2024-03-08T19:58:14;21.50;;;15.63;;
58972;SDS011;44750;52.040;7.472;2024-03-08T20:03:14;29.15;;;18.83;;
58972;SDS011;44750;52.040;7.472;2024-03-08T20:08:15;26.17;;;18.90;;
58972;SDS011;44750;52.040;7.472;2024-03-08T20:13:15;25.77;;;17.83;;
58972;SDS011;44750;52.040;7.472;2024-03-08T20:18:15;19.95;;;16.30;;
58972;SDS011;44750;52.040;7.472;2024-03-08T20:23:15;32.88;;;19.60;;
58972;SDS011;44750;52.040;7.472;2024-03-08T20:28:16;21.73;;;16.05;;
58972;SDS011;44750;52.040;7.472;2024-03-08T20:33:16;25.23;;;18.73;;
58972;SDS011;44750;52.040;7.472;2024-03-08T20:38:17;24.23;;;18.00;;
58972;SDS011;44750;52.040;7.472;2024-03-08T20:43:17;22.13;;;15.57;;
58972;SDS011;44750;52.040;7.472;2024-03-08T20:48:17;22.45;;;17.15;;
58972;SDS011;44750;52.040;7.472;2024-03-08T20:53:18;25.20;;;17.90;;
58972;SDS011;44750;52.040;7.472;2024-03-08T20:58:18;32.80;;;19.45;;
58972;SDS011;44750;52.040;7.472;2024-03-08T21:03:19;34.67;;;20.80;;
58972;SDS011;44750;52.040;7.472;2024-03-08T21:08:19;24.88;;;18.15;;
58972;SDS011;44750;52.040;7.472;2024-03-08T21:13:20;24.52;;;16.58;;
58972;SDS011;44750;52.040;7.472;2024-03-08T21:18:21;25.05;;;16.70;;
58972;SDS011;44750;52.040;7.472;2024-03-08T21:23:22;24.17;;;18.02;;
58972;SDS011;44750;52.040;7.472;2024-03-08T21:28:23;20.42;;;16.20;;
58972;SDS011;44750;52.040;7.472;2024-03-08T21:33:23;24.42;;;17.75;;
58972;SDS011;44750;52.040;7.472;2024-03-08T21:38:23;29.30;;;17.65;;
58972;SDS011;44750;52.040;7.472;2024-03-08T21:43:24;25.30;;;18.92;;
58972;SDS011;44750;52.040;7.472;2024-03-08T21:48:24;24.25;;;18.05;;
58972;SDS011;44750;52.040;7.472;2024-03-08T21:53:24;25.13;;;17.52;;
